sensor_id;sensor_type;location;lat;lon;timestamp;P1;durP1;ratioP1;P2;durP2;ratioP2
25175;SDS011;13135;55.166;61.286;2022-08-01T00:01:13;29.77;;;22.00;;
25175;SDS011;13135;55.166;61.286;2022-08-01T00:03:57;26.77;;;22.67;;
25175;SDS011;13135;55.166;61.286;2022-08-01T00:06:42;27.75;;;22.48;;
25175;SDS011;13135;55.166;61.286;2022-08-01T00:09:27;27.25;;;22.35;;
25175;SDS011;13135;55.166;61.286;2022-08-01T00:12:11;28.55;;;21.70;;
25175;SDS011;13135;55.166;61.286;2022-08-01T00:14:53;29.27;;;22.75;;
25175;SDS011;13135;55.166;61.286;2022-08-01T00:17:38;27.00;;;21.33;;
25175;SDS011;13135;55.166;61.286;2022-08-01T00:20:24;28.60;;;22.23;;
25175;SDS011;13135;55.166;61.286;2022-08-01T00:23:06;26.95;;;21.75;;
25175;SDS011;13135;55.166;61.286;2022-08-01T00:25:50;28.58;;;21.42;;
25175;SDS011;13135;55.166;61.286;2022-08-01T00:28:35;30.25;;;23.08;;
25175;SDS011;13135;55.166;61.286;2022-08-01T00:31:20;32.03;;;23.02;;
25175;SDS011;13135;55.166;61.286;2022-08-01T00:34:05;28.12;;;22.08;;
25175;SDS011;13135;55.166;61.286;2022-08-01T00:36:49;29.17;;;21.92;;
25175;SDS011;13135;55.166;61.286;2022-08-01T00:39:36;26.95;;;20.70;;
25175;SDS011;13135;55.166;61.286;2022-08-01T00:42:21;27.20;;;21.95;;
25175;SDS011;13135;55.166;61.286;2022-08-01T00:45:06;26.55;;;20.42;;
25175;SDS011;13135;55.166;61.286;2022-08-01T00:47:51;28.30;;;21.55;;
25175;SDS011;13135;55.166;61.286;2022-08-01T00:50:36;25.98;;;20.90;;
25175;SDS011;13135;55.166;61.286;2022-08-01T00:53:21;26.98;;;20.98;;
25175;SDS011;13135;55.166;61.286;2022-08-01T00:56:06;25.15;;;20.17;;
25175;SDS011;13135;55.166;61.286;2022-08-01T00:58:49;27.17;;;20.25;;
25175;SDS011;13135;55.166;61.286;2022-08-01T01:01:36;28.15;;;20.83;;
25175;SDS011;13135;55.166;61.286;2022-08-01T01:04:21;30.10;;;20.58;;
25175;SDS011;13135;55.166;61.286;2022-08-01T01:07:08;26.95;;;21.08;;
25175;SDS011;13135;55.166;61.286;2022-08-01T01:10:03;26.42;;;18.85;;
25175;SDS011;13135;55.166;61.286;2022-08-01T01:13:12;28.00;;;20.58;;
25175;SDS011;13135;55.166;61.286;2022-08-01T01:15:57;25.15;;;19.20;;
25175;SDS011;13135;55.166;61.286;2022-08-01T01:18:46;26.00;;;18.40;;
25175;SDS011;13135;55.166;61.286;2022-08-01T01:21:35;28.33;;;18.23;;
25175;SDS011;13135;55.166;61.286;2022-08-01T01:24:37;29.08;;;18.27;;
25175;SDS011;13135;55.166;61.286;2022-08-01T01:27:31;29.02;;;18.37;;
25175;SDS011;13135;55.166;61.286;2022-08-01T01:30:09;29.15;;;17.80;;
25175;SDS011;13135;55.166;61.286;2022-08-01T01:32:59;28.50;;;17.52;;
25175;SDS011;13135;55.166;61.286;2022-08-01T01:35:42;30.85;;;17.85;;
25175;SDS011;13135;55.166;61.286;2022-08-01T01:38:26;27.27;;;16.65;;
25175;SDS011;13135;55.166;61.286;2022-08-01T01:41:13;30.15;;;15.55;;
25175;SDS011;13135;55.166;61.286;2022-08-01T01:43:57;23.33;;;16.27;;
25175;SDS011;13135;55.166;61.286;2022-08-01T01:46:42;26.08;;;17.83;;
25175;SDS011;13135;55.166;61.286;2022-08-01T01:49:27;20.67;;;16.17;;
25175;SDS011;13135;55.166;61.286;2022-08-01T01:52:12;23.38;;;15.98;;
25175;SDS011;13135;55.166;61.286;2022-08-01T01:54:59;20.88;;;15.15;;
25175;SDS011;13135;55.166;61.286;2022-08-01T01:57:44;21.08;;;14.65;;
25175;SDS011;13135;55.166;61.286;2022-08-01T02:00:28;19.15;;;13.40;;
25175;SDS011;13135;55.166;61.286;2022-08-01T02:03:13;17.75;;;13.40;;
25175;SDS011;13135;55.166;61.286;2022-08-01T02:05:57;17.42;;;13.55;;
25175;SDS011;13135;55.166;61.286;2022-08-01T02:08:42;16.52;;;12.35;;
25175;SDS011;13135;55.166;61.286;2022-08-01T02:11:27;18.77;;;13.27;;
25175;SDS011;13135;55.166;61.286;2022-08-01T02:14:18;19.65;;;14.65;;
25175;SDS011;13135;55.166;61.286;2022-08-01T02:17:02;20.17;;;13.52;;
25175;SDS011;13135;55.166;61.286;2022-08-01T02:19:47;18.83;;;13.60;;
25175;SDS011;13135;55.166;61.286;2022-08-01T02:22:33;17.30;;;13.02;;
25175;SDS011;13135;55.166;61.286;2022-08-01T02:25:25;17.73;;;13.00;;
25175;SDS011;13135;55.166;61.286;2022-08-01T02:28:12;15.82;;;12.30;;
25175;SDS011;13135;55.166;61.286;2022-08-01T02:30:56;15.95;;;12.52;;
25175;SDS011;13135;55.166;61.286;2022-08-01T02:33:42;15.32;;;11.68;;
25175;SDS011;13135;55.166;61.286;2022-08-01T02:36:27;17.15;;;11.65;;
25175;SDS011;13135;55.166;61.286;2022-08-01T02:39:13;16.65;;;11.63;;
25175;SDS011;13135;55.166;61.286;2022-08-01T02:42:00;17.27;;;12.10;;
25175;SDS011;13135;55.166;61.286;2022-08-01T02:44:44;14.77;;;11.32;;
25175;SDS011;13135;55.166;61.286;2022-08-01T02:47:25;14.77;;;11.63;;
25175;SDS011;13135;55.166;61.286;2022-08-01T02:50:10;13.35;;;10.27;;
25175;SDS011;13135;55.166;61.286;2022-08-01T02:52:55;13.55;;;9.77;;
25175;SDS011;13135;55.166;61.286;2022-08-01T02:55:39;14.68;;;10.48;;
25175;SDS011;13135;55.166;61.286;2022-08-01T02:58:26;12.60;;;10.40;;
25175;SDS011;13135;55.166;61.286;2022-08-01T03:01:10;12.98;;;10.30;;
25175;SDS011;13135;55.166;61.286;2022-08-01T03:03:55;12.75;;;10.25;;
25175;SDS011;13135;55.166;61.286;2022-08-01T03:06:39;13.38;;;10.15;;
25175;SDS011;13135;55.166;61.286;2022-08-01T03:09:26;13.13;;;10.75;;
25175;SDS011;13135;55.166;61.286;2022-08-01T03:12:13;13.32;;;10.27;;
25175;SDS011;13135;55.166;61.286;2022-08-01T03:14:56;11.68;;;9.93;;
25175;SDS011;13135;55.166;61.286;2022-08-01T03:17:41;18.27;;;11.18;;
25175;SDS011;13135;55.166;61.286;2022-08-01T03:20:26;14.15;;;10.70;;
25175;SDS011;13135;55.166;61.286;2022-08-01T03:23:11;15.70;;;11.05;;
25175;SDS011;13135;55.166;61.286;2022-08-01T03:25:53;15.45;;;10.73;;
25175;SDS011;13135;55.166;61.286;2022-08-01T03:28:37;16.67;;;11.25;;
25175;SDS011;13135;55.166;61.286;2022-08-01T03:31:23;13.30;;;10.27;;
25175;SDS011;13135;55.166;61.286;2022-08-01T03:34:07;12.77;;;10.27;;
25175;SDS011;13135;55.166;61.286;2022-08-01T03:36:55;13.73;;;10.00;;
25175;SDS011;13135;55.166;61.286;2022-08-01T03:39:43;13.95;;;10.95;;
25175;SDS011;13135;55.166;61.286;2022-08-01T03:42:28;12.63;;;10.15;;
25175;SDS011;13135;55.166;61.286;2022-08-01T03:45:11;12.00;;;9.35;;
25175;SDS011;13135;55.166;61.286;2022-08-01T03:47:59;12.68;;;10.63;;
25175;SDS011;13135;55.166;61.286;2022-08-01T03:50:46;13.45;;;10.98;;
25175;SDS011;13135;55.166;61.286;2022-08-01T03:53:32;16.42;;;10.27;;
25175;SDS011;13135;55.166;61.286;2022-08-01T03:56:20;14.27;;;10.48;;
25175;SDS011;13135;55.166;61.286;2022-08-01T03:59:05;13.65;;;10.27;;
25175;SDS011;13135;55.166;61.286;2022-08-01T04:01:51;14.07;;;10.23;;
25175;SDS011;13135;55.166;61.286;2022-08-01T04:04:36;11.63;;;10.13;;
25175;SDS011;13135;55.166;61.286;2022-08-01T04:07:22;13.23;;;10.40;;
25175;SDS011;13135;55.166;61.286;2022-08-01T04:10:07;12.02;;;9.38;;
25175;SDS011;13135;55.166;61.286;2022-08-01T04:12:52;10.85;;;9.68;;
25175;SDS011;13135;55.166;61.286;2022-08-01T04:15:36;12.30;;;9.77;;
25175;SDS011;13135;55.166;61.286;2022-08-01T04:18:21;12.20;;;9.85;;
25175;SDS011;13135;55.166;61.286;2022-08-01T04:21:07;11.85;;;9.80;;
25175;SDS011;13135;55.166;61.286;2022-08-01T04:23:52;12.85;;;11.18;;
25175;SDS011;13135;55.166;61.286;2022-08-01T04:26:49;11.65;;;9.93;;
25175;SDS011;13135;55.166;61.286;2022-08-01T04:29:32;12.82;;;10.50;;
25175;SDS011;13135;55.166;61.286;2022-08-01T04:32:17;12.25;;;10.10;;
25175;SDS011;13135;55.166;61.286;2022-08-01T04:35:03;13.82;;;10.20;;
25175;SDS011;13135;55.166;61.286;2022-08-01T04:37:49;11.93;;;9.80;;
25175;SDS011;13135;55.166;61.286;2022-08-01T04:40:34;12.05;;;10.32;;
25175;SDS011;13135;55.166;61.286;2022-08-01T04:43:20;13.23;;;10.60;;
25175;SDS011;13135;55.166;61.286;2022-08-01T04:46:02;13.27;;;10.32;;
25175;SDS011;13135;55.166;61.286;2022-08-01T04:48:47;14.05;;;10.73;;
25175;SDS011;13135;55.166;61.286;2022-08-01T04:51:31;14.23;;;9.90;;
25175;SDS011;13135;55.166;61.286;2022-08-01T04:54:16;11.38;;;9.55;;
25175;SDS011;13135;55.166;61.286;2022-08-01T04:57:01;11.55;;;9.82;;
25175;SDS011;13135;55.166;61.286;2022-08-01T04:59:46;13.98;;;10.13;;
25175;SDS011;13135;55.166;61.286;2022-08-01T05:02:31;13.57;;;10.35;;
25175;SDS011;13135;55.166;61.286;2022-08-01T05:05:16;13.48;;;9.85;;
25175;SDS011;13135;55.166;61.286;2022-08-01T05:08:02;12.13;;;9.13;;
25175;SDS011;13135;55.166;61.286;2022-08-01T05:10:47;11.02;;;9.50;;
25175;SDS011;13135;55.166;61.286;2022-08-01T05:13:32;10.45;;;8.73;;
25175;SDS011;13135;55.166;61.286;2022-08-01T05:16:19;9.82;;;8.82;;
25175;SDS011;13135;55.166;61.286;2022-08-01T05:19:02;11.23;;;8.98;;
25175;SDS011;13135;55.166;61.286;2022-08-01T05:21:47;10.77;;;8.10;;
25175;SDS011;13135;55.166;61.286;2022-08-01T05:24:34;9.93;;;8.10;;
25175;SDS011;13135;55.166;61.286;2022-08-01T05:27:19;10.40;;;8.80;;
25175;SDS011;13135;55.166;61.286;2022-08-01T05:30:04;9.20;;;8.05;;
25175;SDS011;13135;55.166;61.286;2022-08-01T05:32:52;9.57;;;8.20;;
25175;SDS011;13135;55.166;61.286;2022-08-01T05:35:36;9.10;;;8.20;;
25175;SDS011;13135;55.166;61.286;2022-08-01T05:38:20;9.70;;;8.15;;
25175;SDS011;13135;55.166;61.286;2022-08-01T05:41:05;11.15;;;8.40;;
25175;SDS011;13135;55.166;61.286;2022-08-01T05:43:50;9.82;;;8.18;;
25175;SDS011;13135;55.166;61.286;2022-08-01T05:46:35;9.07;;;7.87;;
25175;SDS011;13135;55.166;61.286;2022-08-01T05:49:20;11.10;;;7.95;;
25175;SDS011;13135;55.166;61.286;2022-08-01T05:52:05;8.30;;;7.50;;
25175;SDS011;13135;55.166;61.286;2022-08-01T05:54:52;11.63;;;9.70;;
25175;SDS011;13135;55.166;61.286;2022-08-01T05:57:36;9.57;;;8.13;;
25175;SDS011;13135;55.166;61.286;2022-08-01T06:00:21;9.63;;;8.05;;
25175;SDS011;13135;55.166;61.286;2022-08-01T06:03:07;9.10;;;8.20;;
25175;SDS011;13135;55.166;61.286;2022-08-01T06:05:52;9.75;;;8.75;;
25175;SDS011;13135;55.166;61.286;2022-08-01T06:08:37;11.25;;;9.23;;
25175;SDS011;13135;55.166;61.286;2022-08-01T06:11:22;11.95;;;9.82;;
25175;SDS011;13135;55.166;61.286;2022-08-01T06:14:07;9.55;;;8.23;;
25175;SDS011;13135;55.166;61.286;2022-08-01T06:16:52;9.75;;;8.25;;
25175;SDS011;13135;55.166;61.286;2022-08-01T06:19:37;10.57;;;8.82;;
25175;SDS011;13135;55.166;61.286;2022-08-01T06:22:22;9.98;;;8.57;;
25175;SDS011;13135;55.166;61.286;2022-08-01T06:25:08;11.40;;;9.30;;
25175;SDS011;13135;55.166;61.286;2022-08-01T06:27:53;12.10;;;9.52;;
25175;SDS011;13135;55.166;61.286;2022-08-01T06:30:38;11.20;;;9.57;;
25175;SDS011;13135;55.166;61.286;2022-08-01T06:33:23;10.52;;;8.50;;
25175;SDS011;13135;55.166;61.286;2022-08-01T06:36:08;10.57;;;9.30;;
25175;SDS011;13135;55.166;61.286;2022-08-01T06:38:52;9.32;;;8.35;;
25175;SDS011;13135;55.166;61.286;2022-08-01T06:41:38;9.90;;;8.70;;
25175;SDS011;13135;55.166;61.286;2022-08-01T06:44:21;9.95;;;8.95;;
25175;SDS011;13135;55.166;61.286;2022-08-01T06:47:06;12.57;;;9.20;;
25175;SDS011;13135;55.166;61.286;2022-08-01T06:49:51;11.52;;;8.50;;
25175;SDS011;13135;55.166;61.286;2022-08-01T06:52:37;9.77;;;7.62;;
25175;SDS011;13135;55.166;61.286;2022-08-01T06:55:22;9.77;;;7.47;;
25175;SDS011;13135;55.166;61.286;2022-08-01T06:58:07;8.32;;;7.40;;
25175;SDS011;13135;55.166;61.286;2022-08-01T07:00:52;10.30;;;7.10;;
25175;SDS011;13135;55.166;61.286;2022-08-01T07:03:36;9.68;;;7.25;;
25175;SDS011;13135;55.166;61.286;2022-08-01T07:06:22;10.60;;;8.02;;
25175;SDS011;13135;55.166;61.286;2022-08-01T07:09:06;9.20;;;7.93;;
25175;SDS011;13135;55.166;61.286;2022-08-01T07:11:51;11.55;;;7.80;;
25175;SDS011;13135;55.166;61.286;2022-08-01T07:14:36;8.35;;;7.32;;
25175;SDS011;13135;55.166;61.286;2022-08-01T07:17:21;8.23;;;7.43;;
25175;SDS011;13135;55.166;61.286;2022-08-01T07:20:06;8.95;;;7.75;;
25175;SDS011;13135;55.166;61.286;2022-08-01T07:22:52;9.57;;;8.43;;
25175;SDS011;13135;55.166;61.286;2022-08-01T07:25:36;9.45;;;7.75;;
25175;SDS011;13135;55.166;61.286;2022-08-01T07:28:20;8.95;;;7.75;;
25175;SDS011;13135;55.166;61.286;2022-08-01T07:31:05;9.93;;;8.00;;
25175;SDS011;13135;55.166;61.286;2022-08-01T07:33:50;9.52;;;7.47;;
25175;SDS011;13135;55.166;61.286;2022-08-01T07:36:35;9.93;;;7.85;;
25175;SDS011;13135;55.166;61.286;2022-08-01T07:39:19;9.55;;;8.55;;
25175;SDS011;13135;55.166;61.286;2022-08-01T07:42:03;9.10;;;7.87;;
25175;SDS011;13135;55.166;61.286;2022-08-01T07:44:49;14.02;;;10.73;;
25175;SDS011;13135;55.166;61.286;2022-08-01T07:47:32;11.60;;;10.25;;
25175;SDS011;13135;55.166;61.286;2022-08-01T07:50:16;13.55;;;9.73;;
25175;SDS011;13135;55.166;61.286;2022-08-01T07:53:01;11.82;;;9.75;;
25175;SDS011;13135;55.166;61.286;2022-08-01T07:55:46;14.57;;;11.30;;
25175;SDS011;13135;55.166;61.286;2022-08-01T07:58:31;12.05;;;10.13;;
25175;SDS011;13135;55.166;61.286;2022-08-01T08:01:16;10.73;;;9.18;;
25175;SDS011;13135;55.166;61.286;2022-08-01T08:04:01;11.50;;;8.90;;
25175;SDS011;13135;55.166;61.286;2022-08-01T08:06:46;13.23;;;10.35;;
25175;SDS011;13135;55.166;61.286;2022-08-01T08:09:31;12.65;;;11.35;;
25175;SDS011;13135;55.166;61.286;2022-08-01T08:12:17;14.57;;;12.70;;
25175;SDS011;13135;55.166;61.286;2022-08-01T08:15:02;19.75;;;16.60;;
25175;SDS011;13135;55.166;61.286;2022-08-01T08:17:47;11.57;;;9.55;;
25175;SDS011;13135;55.166;61.286;2022-08-01T08:20:32;9.10;;;8.02;;
25175;SDS011;13135;55.166;61.286;2022-08-01T08:23:17;12.95;;;8.70;;
25175;SDS011;13135;55.166;61.286;2022-08-01T08:26:01;9.43;;;8.35;;
25175;SDS011;13135;55.166;61.286;2022-08-01T08:28:46;10.43;;;8.38;;
25175;SDS011;13135;55.166;61.286;2022-08-01T08:31:31;10.43;;;8.23;;
25175;SDS011;13135;55.166;61.286;2022-08-01T08:34:16;12.95;;;10.70;;
25175;SDS011;13135;55.166;61.286;2022-08-01T08:37:01;11.88;;;9.75;;
25175;SDS011;13135;55.166;61.286;2022-08-01T08:39:46;12.13;;;9.40;;
25175;SDS011;13135;55.166;61.286;2022-08-01T08:42:32;10.85;;;9.68;;
25175;SDS011;13135;55.166;61.286;2022-08-01T08:45:16;12.00;;;10.52;;
25175;SDS011;13135;55.166;61.286;2022-08-01T08:48:02;10.32;;;9.32;;
25175;SDS011;13135;55.166;61.286;2022-08-01T08:50:53;10.73;;;9.50;;
25175;SDS011;13135;55.166;61.286;2022-08-01T08:53:40;10.95;;;9.70;;
25175;SDS011;13135;55.166;61.286;2022-08-01T08:56:25;10.77;;;9.65;;
25175;SDS011;13135;55.166;61.286;2022-08-01T08:59:10;10.95;;;9.85;;
25175;SDS011;13135;55.166;61.286;2022-08-01T09:01:56;12.10;;;9.50;;
25175;SDS011;13135;55.166;61.286;2022-08-01T09:04:41;10.68;;;9.52;;
25175;SDS011;13135;55.166;61.286;2022-08-01T09:07:26;10.68;;;9.50;;
25175;SDS011;13135;55.166;61.286;2022-08-01T09:10:12;12.23;;;9.73;;
25175;SDS011;13135;55.166;61.286;2022-08-01T09:13:14;9.70;;;8.70;;
25175;SDS011;13135;55.166;61.286;2022-08-01T09:15:59;10.23;;;9.13;;
25175;SDS011;13135;55.166;61.286;2022-08-01T09:18:45;9.57;;;8.45;;
25175;SDS011;13135;55.166;61.286;2022-08-01T09:21:29;10.15;;;8.45;;
25175;SDS011;13135;55.166;61.286;2022-08-01T09:24:15;15.20;;;10.55;;
25175;SDS011;13135;55.166;61.286;2022-08-01T09:27:00;13.73;;;10.95;;
25175;SDS011;13135;55.166;61.286;2022-08-01T09:29:45;19.12;;;11.57;;
25175;SDS011;13135;55.166;61.286;2022-08-01T09:32:30;17.67;;;13.45;;
25175;SDS011;13135;55.166;61.286;2022-08-01T09:38:16;18.23;;;13.50;;
25175;SDS011;13135;55.166;61.286;2022-08-01T09:41:01;19.70;;;11.63;;
25175;SDS011;13135;55.166;61.286;2022-08-01T09:43:47;14.57;;;9.70;;
25175;SDS011;13135;55.166;61.286;2022-08-01T09:46:33;14.27;;;10.30;;
25175;SDS011;13135;55.166;61.286;2022-08-01T09:52:15;12.48;;;9.30;;
25175;SDS011;13135;55.166;61.286;2022-08-01T09:55:02;12.20;;;9.48;;
25175;SDS011;13135;55.166;61.286;2022-08-01T10:00:39;17.30;;;11.07;;
25175;SDS011;13135;55.166;61.286;2022-08-01T10:03:24;32.92;;;13.57;;
25175;SDS011;13135;55.166;61.286;2022-08-01T10:06:26;23.33;;;13.62;;
25175;SDS011;13135;55.166;61.286;2022-08-01T10:09:11;22.58;;;13.68;;
25175;SDS011;13135;55.166;61.286;2022-08-01T10:11:55;22.33;;;14.48;;
25175;SDS011;13135;55.166;61.286;2022-08-01T10:14:40;25.60;;;15.27;;
25175;SDS011;13135;55.166;61.286;2022-08-01T10:17:27;23.62;;;13.40;;
25175;SDS011;13135;55.166;61.286;2022-08-01T10:20:13;84.45;;;65.18;;
25175;SDS011;13135;55.166;61.286;2022-08-01T10:22:55;22.62;;;15.57;;
25175;SDS011;13135;55.166;61.286;2022-08-01T10:25:40;23.73;;;15.80;;
25175;SDS011;13135;55.166;61.286;2022-08-01T10:28:26;22.60;;;13.93;;
25175;SDS011;13135;55.166;61.286;2022-08-01T10:31:10;21.55;;;13.52;;
25175;SDS011;13135;55.166;61.286;2022-08-01T10:33:55;19.65;;;13.25;;
25175;SDS011;13135;55.166;61.286;2022-08-01T10:36:41;30.35;;;18.52;;
25175;SDS011;13135;55.166;61.286;2022-08-01T10:39:25;29.90;;;18.00;;
25175;SDS011;13135;55.166;61.286;2022-08-01T10:42:11;29.70;;;19.00;;
25175;SDS011;13135;55.166;61.286;2022-08-01T10:44:55;26.35;;;18.00;;
25175;SDS011;13135;55.166;61.286;2022-08-01T10:47:48;52.80;;;39.50;;
25175;SDS011;13135;55.166;61.286;2022-08-01T10:50:45;28.55;;;17.60;;
25175;SDS011;13135;55.166;61.286;2022-08-01T10:53:27;26.45;;;19.25;;
25175;SDS011;13135;55.166;61.286;2022-08-01T10:56:14;31.42;;;22.35;;
25175;SDS011;13135;55.166;61.286;2022-08-01T10:59:01;24.95;;;16.30;;
25175;SDS011;13135;55.166;61.286;2022-08-01T11:01:51;21.52;;;14.30;;
25175;SDS011;13135;55.166;61.286;2022-08-01T11:04:54;19.70;;;14.02;;
25175;SDS011;13135;55.166;61.286;2022-08-01T11:07:43;17.10;;;13.18;;
25175;SDS011;13135;55.166;61.286;2022-08-01T11:10:33;21.62;;;13.38;;
25175;SDS011;13135;55.166;61.286;2022-08-01T11:13:35;15.50;;;11.98;;
25175;SDS011;13135;55.166;61.286;2022-08-01T11:19:08;15.88;;;11.60;;
25175;SDS011;13135;55.166;61.286;2022-08-01T11:22:00;30.08;;;23.12;;
25175;SDS011;13135;55.166;61.286;2022-08-01T11:27:42;17.00;;;11.77;;
25175;SDS011;13135;55.166;61.286;2022-08-01T11:30:29;14.02;;;11.25;;
25175;SDS011;13135;55.166;61.286;2022-08-01T11:33:15;12.07;;;10.00;;
25175;SDS011;13135;55.166;61.286;2022-08-01T11:36:17;16.85;;;12.50;;
25175;SDS011;13135;55.166;61.286;2022-08-01T11:39:12;16.52;;;12.77;;
25175;SDS011;13135;55.166;61.286;2022-08-01T11:41:57;18.33;;;12.37;;
25175;SDS011;13135;55.166;61.286;2022-08-01T11:44:48;17.73;;;13.40;;
25175;SDS011;13135;55.166;61.286;2022-08-01T11:50:34;19.37;;;14.47;;
25175;SDS011;13135;55.166;61.286;2022-08-01T11:53:19;14.60;;;11.07;;
25175;SDS011;13135;55.166;61.286;2022-08-01T11:56:04;19.10;;;12.13;;
25175;SDS011;13135;55.166;61.286;2022-08-01T11:58:49;17.77;;;12.02;;
25175;SDS011;13135;55.166;61.286;2022-08-01T12:01:33;15.25;;;11.90;;
25175;SDS011;13135;55.166;61.286;2022-08-01T12:04:18;18.15;;;12.48;;
25175;SDS011;13135;55.166;61.286;2022-08-01T12:10:06;16.23;;;12.50;;
25175;SDS011;13135;55.166;61.286;2022-08-01T12:12:52;16.48;;;12.73;;
25175;SDS011;13135;55.166;61.286;2022-08-01T12:15:37;67.97;;;44.80;;
25175;SDS011;13135;55.166;61.286;2022-08-01T12:18:22;23.27;;;15.73;;
25175;SDS011;13135;55.166;61.286;2022-08-01T12:21:07;17.20;;;13.68;;
25175;SDS011;13135;55.166;61.286;2022-08-01T12:26:44;14.68;;;11.48;;
25175;SDS011;13135;55.166;61.286;2022-08-01T12:29:32;10.50;;;9.40;;
25175;SDS011;13135;55.166;61.286;2022-08-01T12:32:25;12.20;;;10.10;;
25175;SDS011;13135;55.166;61.286;2022-08-01T12:35:18;11.82;;;9.93;;
25175;SDS011;13135;55.166;61.286;2022-08-01T12:38:06;12.57;;;9.55;;
25175;SDS011;13135;55.166;61.286;2022-08-01T12:40:50;10.98;;;9.70;;
25175;SDS011;13135;55.166;61.286;2022-08-01T12:43:35;11.35;;;9.68;;
25175;SDS011;13135;55.166;61.286;2022-08-01T12:46:19;10.95;;;9.48;;
25175;SDS011;13135;55.166;61.286;2022-08-01T12:49:03;11.65;;;10.27;;
25175;SDS011;13135;55.166;61.286;2022-08-01T12:51:48;13.57;;;10.10;;
25175;SDS011;13135;55.166;61.286;2022-08-01T12:57:32;10.88;;;9.70;;
25175;SDS011;13135;55.166;61.286;2022-08-01T13:00:21;10.68;;;9.57;;
25175;SDS011;13135;55.166;61.286;2022-08-01T13:03:07;18.65;;;15.98;;
25175;SDS011;13135;55.166;61.286;2022-08-01T13:05:55;11.32;;;9.57;;
25175;SDS011;13135;55.166;61.286;2022-08-01T13:08:47;10.93;;;9.73;;
25175;SDS011;13135;55.166;61.286;2022-08-01T13:11:33;11.75;;;9.60;;
25175;SDS011;13135;55.166;61.286;2022-08-01T13:14:26;10.75;;;8.75;;
25175;SDS011;13135;55.166;61.286;2022-08-01T13:17:29;10.75;;;9.40;;
25175;SDS011;13135;55.166;61.286;2022-08-01T13:19:57;11.07;;;9.18;;
25175;SDS011;13135;55.166;61.286;2022-08-01T13:22:42;10.95;;;8.85;;
25175;SDS011;13135;55.166;61.286;2022-08-01T13:25:28;11.57;;;9.20;;
25175;SDS011;13135;55.166;61.286;2022-08-01T13:28:14;12.27;;;9.82;;
25175;SDS011;13135;55.166;61.286;2022-08-01T13:31:04;11.93;;;9.30;;
25175;SDS011;13135;55.166;61.286;2022-08-01T13:33:51;9.40;;;8.45;;
25175;SDS011;13135;55.166;61.286;2022-08-01T13:36:36;11.50;;;9.88;;
25175;SDS011;13135;55.166;61.286;2022-08-01T13:39:21;10.48;;;9.38;;
25175;SDS011;13135;55.166;61.286;2022-08-01T13:42:09;9.90;;;8.93;;
25175;SDS011;13135;55.166;61.286;2022-08-01T13:44:55;10.48;;;8.90;;
25175;SDS011;13135;55.166;61.286;2022-08-01T13:47:40;9.77;;;8.77;;
25175;SDS011;13135;55.166;61.286;2022-08-01T13:50:26;12.80;;;9.07;;
25175;SDS011;13135;55.166;61.286;2022-08-01T13:53:15;11.77;;;8.95;;
25175;SDS011;13135;55.166;61.286;2022-08-01T13:56:00;11.20;;;9.45;;
25175;SDS011;13135;55.166;61.286;2022-08-01T13:58:45;10.20;;;9.15;;
25175;SDS011;13135;55.166;61.286;2022-08-01T14:01:30;10.25;;;9.25;;
25175;SDS011;13135;55.166;61.286;2022-08-01T14:04:15;9.45;;;8.55;;
25175;SDS011;13135;55.166;61.286;2022-08-01T14:07:00;11.02;;;9.15;;
25175;SDS011;13135;55.166;61.286;2022-08-01T14:09:47;11.30;;;8.55;;
25175;SDS011;13135;55.166;61.286;2022-08-01T14:12:30;9.88;;;7.43;;
25175;SDS011;13135;55.166;61.286;2022-08-01T14:15:14;10.40;;;7.65;;
25175;SDS011;13135;55.166;61.286;2022-08-01T14:18:00;11.57;;;8.20;;
25175;SDS011;13135;55.166;61.286;2022-08-01T14:20:45;14.00;;;8.80;;
25175;SDS011;13135;55.166;61.286;2022-08-01T14:23:30;11.12;;;8.45;;
25175;SDS011;13135;55.166;61.286;2022-08-01T14:26:14;10.55;;;7.68;;
25175;SDS011;13135;55.166;61.286;2022-08-01T14:28:59;7.78;;;7.00;;
25175;SDS011;13135;55.166;61.286;2022-08-01T14:31:44;9.13;;;6.43;;
25175;SDS011;13135;55.166;61.286;2022-08-01T14:34:28;8.75;;;6.28;;
25175;SDS011;13135;55.166;61.286;2022-08-01T14:37:12;7.30;;;6.30;;
25175;SDS011;13135;55.166;61.286;2022-08-01T14:39:56;6.85;;;6.15;;
25175;SDS011;13135;55.166;61.286;2022-08-01T14:42:40;6.90;;;6.20;;
25175;SDS011;13135;55.166;61.286;2022-08-01T14:45:24;6.53;;;5.60;;
25175;SDS011;13135;55.166;61.286;2022-08-01T14:48:09;7.90;;;6.18;;
25175;SDS011;13135;55.166;61.286;2022-08-01T14:50:53;6.68;;;6.00;;
25175;SDS011;13135;55.166;61.286;2022-08-01T14:53:38;5.68;;;5.18;;
25175;SDS011;13135;55.166;61.286;2022-08-01T14:56:23;8.20;;;5.10;;
25175;SDS011;13135;55.166;61.286;2022-08-01T14:59:05;6.45;;;5.62;;
25175;SDS011;13135;55.166;61.286;2022-08-01T15:01:50;15.70;;;12.02;;
25175;SDS011;13135;55.166;61.286;2022-08-01T15:04:35;17.95;;;14.18;;
25175;SDS011;13135;55.166;61.286;2022-08-01T15:07:16;10.20;;;7.22;;
25175;SDS011;13135;55.166;61.286;2022-08-01T15:10:03;13.82;;;7.30;;
25175;SDS011;13135;55.166;61.286;2022-08-01T15:12:49;10.13;;;6.85;;
25175;SDS011;13135;55.166;61.286;2022-08-01T15:15:35;10.38;;;6.32;;
25175;SDS011;13135;55.166;61.286;2022-08-01T15:18:22;9.60;;;6.12;;
25175;SDS011;13135;55.166;61.286;2022-08-01T15:21:06;9.15;;;6.07;;
25175;SDS011;13135;55.166;61.286;2022-08-01T15:23:50;9.43;;;5.50;;
25175;SDS011;13135;55.166;61.286;2022-08-01T15:26:35;10.18;;;5.78;;
25175;SDS011;13135;55.166;61.286;2022-08-01T15:29:20;10.13;;;6.05;;
25175;SDS011;13135;55.166;61.286;2022-08-01T15:32:06;10.02;;;5.87;;
25175;SDS011;13135;55.166;61.286;2022-08-01T15:34:51;11.52;;;6.72;;
25175;SDS011;13135;55.166;61.286;2022-08-01T15:37:36;15.32;;;8.70;;
25175;SDS011;13135;55.166;61.286;2022-08-01T15:40:20;10.82;;;6.30;;
25175;SDS011;13135;55.166;61.286;2022-08-01T15:43:05;7.75;;;5.90;;
25175;SDS011;13135;55.166;61.286;2022-08-01T15:45:50;9.90;;;6.07;;
25175;SDS011;13135;55.166;61.286;2022-08-01T15:48:34;7.22;;;5.12;;
25175;SDS011;13135;55.166;61.286;2022-08-01T15:51:19;10.25;;;7.40;;
25175;SDS011;13135;55.166;61.286;2022-08-01T15:54:04;7.12;;;5.10;;
25175;SDS011;13135;55.166;61.286;2022-08-01T15:56:48;6.87;;;5.45;;
25175;SDS011;13135;55.166;61.286;2022-08-01T15:59:33;9.57;;;5.93;;
25175;SDS011;13135;55.166;61.286;2022-08-01T16:02:14;8.48;;;6.22;;
25175;SDS011;13135;55.166;61.286;2022-08-01T16:04:59;12.18;;;6.93;;
25175;SDS011;13135;55.166;61.286;2022-08-01T16:07:45;12.88;;;7.28;;
25175;SDS011;13135;55.166;61.286;2022-08-01T16:10:29;14.25;;;8.30;;
25175;SDS011;13135;55.166;61.286;2022-08-01T16:13:12;16.30;;;8.85;;
25175;SDS011;13135;55.166;61.286;2022-08-01T16:15:59;15.35;;;9.20;;
25175;SDS011;13135;55.166;61.286;2022-08-01T16:18:44;21.17;;;9.25;;
25175;SDS011;13135;55.166;61.286;2022-08-01T16:21:30;18.77;;;8.95;;
25175;SDS011;13135;55.166;61.286;2022-08-01T16:24:15;17.60;;;9.80;;
25175;SDS011;13135;55.166;61.286;2022-08-01T16:27:00;19.90;;;11.45;;
25175;SDS011;13135;55.166;61.286;2022-08-01T16:29:45;19.37;;;10.48;;
25175;SDS011;13135;55.166;61.286;2022-08-01T16:32:30;16.25;;;10.57;;